Eagle Point, Oregon
Current Conditions -  °F | °C
As of 12:53 PM on Thursday 27 Nov 2014 (Local Time) from KMFR Reporting Station
Clear Clear  
Wind Chill: 57°   Ceiling: Unl
Heat Index: 57°   Visibility: 10mi
Dew Point: 48°   Wind: 8mph
Humidity: 72%   Direction: 340°NNW
Pressure: 30.04"   Gusts: NA
Location:  42.47°N, 122.8°W
Report Text: KMFR 272053Z 34007KT 10SM CLR 14/09 A3004 RMK AO2 SLP172 T01390089 55017
Loading
Personal Weather Stations






























Interactive Weather Map New forecast layout! Learn more

10-Day Weather Forecast

Advertisements
Track Severe Weather on mobile